createdAt,value
2019-05-11T00:01:59.594Z,13.91
2019-05-11T00:04:26.366Z,13.86
2019-05-11T00:06:53.005Z,13.86
2019-05-11T00:09:19.807Z,13.86
2019-05-11T00:11:46.556Z,13.89
2019-05-11T00:14:16.256Z,13.88
2019-05-11T00:16:43.213Z,13.77
2019-05-11T00:19:09.923Z,13.81
2019-05-11T00:21:36.944Z,13.81
2019-05-11T00:24:03.992Z,13.84
2019-05-11T00:26:30.760Z,13.70
2019-05-11T00:28:57.447Z,13.71
2019-05-11T00:31:24.577Z,13.80
2019-05-11T00:33:51.374Z,13.79
2019-05-11T00:36:20.020Z,13.79
2019-05-11T00:38:48.786Z,13.74
2019-05-11T00:41:15.648Z,13.72
2019-05-11T00:43:46.812Z,13.75
2019-05-11T00:46:13.549Z,13.70
2019-05-11T00:48:40.256Z,13.55
2019-05-11T00:51:06.942Z,13.51
2019-05-11T00:53:33.661Z,13.50
2019-05-11T00:56:00.419Z,13.51
2019-05-11T00:58:27.233Z,13.44
2019-05-11T01:00:54.718Z,13.34
2019-05-11T01:03:21.522Z,13.19
2019-05-11T01:05:49.652Z,13.14
2019-05-11T01:08:16.323Z,13.33
2019-05-11T01:10:46.233Z,13.47
2019-05-11T01:13:13.033Z,13.56
2019-05-11T01:15:39.770Z,13.57
2019-05-11T01:18:06.578Z,13.55
2019-05-11T01:20:33.274Z,13.49
2019-05-11T01:22:59.980Z,13.44
2019-05-11T01:25:26.684Z,13.47
2019-05-11T01:27:53.406Z,13.48
2019-05-11T01:30:20.248Z,13.55
2019-05-11T01:32:46.948Z,13.56
2019-05-11T01:35:13.762Z,13.50
2019-05-11T01:37:41.227Z,13.56
2019-05-11T01:40:07.958Z,13.60
2019-05-11T01:42:34.790Z,13.49
2019-05-11T01:45:01.507Z,13.33
2019-05-11T01:47:28.190Z,13.21
2019-05-11T01:49:54.933Z,13.05
2019-05-11T01:52:21.662Z,13.03
2019-05-11T01:54:48.420Z,13.08
2019-05-11T01:57:15.572Z,13.25
2019-05-11T01:59:42.416Z,13.29
2019-05-11T02:02:09.169Z,13.25
2019-05-11T02:04:36.314Z,13.22
2019-05-11T02:07:03.065Z,13.16
2019-05-11T02:09:32.396Z,13.09
2019-05-11T02:11:59.120Z,13.06
2019-05-11T02:14:25.907Z,13.00
2019-05-11T02:16:54.513Z,13.14
2019-05-11T02:19:21.268Z,13.22
2019-05-11T02:21:48.827Z,13.28
2019-05-11T02:24:15.565Z,13.28
2019-05-11T02:26:42.270Z,13.33
2019-05-11T02:29:09.108Z,13.38
2019-05-11T02:31:35.834Z,13.47
2019-05-11T02:34:02.550Z,13.47
2019-05-11T02:36:29.341Z,13.49
2019-05-11T02:38:56.065Z,13.52
2019-05-11T02:41:35.550Z,13.55
2019-05-11T02:43:51.710Z,13.66
2019-05-11T02:46:18.426Z,13.75
2019-05-11T02:48:45.155Z,13.60
2019-05-11T02:51:11.983Z,13.50
2019-05-11T02:53:39.216Z,13.47
2019-05-11T02:56:05.953Z,13.51
2019-05-11T02:58:32.717Z,13.49
2019-05-11T03:00:59.449Z,13.45
2019-05-11T03:03:26.206Z,13.47
2019-05-11T03:05:52.909Z,13.43
2019-05-11T03:08:19.946Z,13.29
2019-05-11T03:10:46.728Z,13.12
2019-05-11T03:13:13.446Z,13.03
2019-05-11T03:15:40.426Z,12.99
2019-05-11T03:18:09.090Z,13.06
2019-05-11T03:20:36.073Z,13.20
2019-05-11T03:23:02.889Z,13.22
2019-05-11T03:25:29.914Z,13.26
2019-05-11T03:27:56.615Z,13.19
2019-05-11T03:30:24.768Z,13.11
2019-05-11T03:32:51.635Z,13.20
2019-05-11T03:35:18.537Z,13.25
2019-05-11T03:37:45.254Z,13.29
2019-05-11T03:40:11.959Z,13.33
2019-05-11T03:42:38.677Z,13.33
2019-05-11T03:45:06.213Z,13.35
2019-05-11T03:47:33.378Z,13.42
2019-05-11T03:50:00.066Z,13.47
2019-05-11T03:52:26.770Z,13.52
2019-05-11T03:54:53.501Z,13.56
2019-05-11T03:57:20.228Z,13.62
2019-05-11T03:59:46.943Z,13.64
2019-05-11T04:02:13.697Z,13.69
2019-05-11T04:04:40.411Z,13.67
2019-05-11T04:07:07.474Z,13.60
2019-05-11T04:09:34.193Z,13.51
2019-05-11T04:12:03.132Z,13.51
2019-05-11T04:14:29.856Z,13.67
2019-05-11T04:16:56.541Z,13.80
2019-05-11T04:19:23.280Z,13.92
2019-05-11T04:21:50.019Z,14.01
2019-05-11T04:24:16.748Z,14.00
2019-05-11T04:26:45.329Z,14.03
2019-05-11T04:29:13.818Z,14.07
2019-05-11T04:31:40.524Z,14.08
2019-05-11T04:34:07.245Z,14.16
2019-05-11T04:36:33.952Z,14.23
2019-05-11T04:39:00.662Z,14.30
2019-05-11T04:41:27.352Z,14.26
2019-05-11T04:43:54.059Z,14.29
2019-05-11T04:46:20.755Z,14.30
2019-05-11T04:48:50.176Z,14.32
2019-05-11T04:51:19.153Z,14.38
2019-05-11T04:53:45.840Z,14.39
2019-05-11T04:56:15.906Z,14.43
2019-05-11T04:58:42.647Z,14.41
2019-05-11T05:01:09.375Z,14.48
2019-05-11T05:03:40.645Z,14.44
2019-05-11T05:06:22.076Z,14.38
2019-05-11T05:08:33.316Z,14.45
2019-05-11T05:11:01.422Z,14.42
2019-05-11T05:13:29.407Z,14.42
2019-05-11T05:15:56.903Z,14.52
2019-05-11T05:18:23.597Z,14.51
2019-05-11T05:20:50.305Z,14.58
2019-05-11T05:23:17.065Z,14.59
2019-05-11T05:25:43.774Z,14.62
2019-05-11T05:28:10.501Z,14.61
2019-05-11T05:30:37.245Z,14.61
2019-05-11T05:33:04.013Z,14.65
2019-05-11T05:35:30.926Z,14.63
2019-05-11T05:37:57.735Z,14.62
2019-05-11T05:40:24.469Z,14.72
2019-05-11T05:42:51.661Z,14.76
2019-05-11T05:45:18.689Z,14.81
2019-05-11T05:47:45.512Z,14.82
2019-05-11T05:50:15.469Z,14.84
2019-05-11T05:52:42.428Z,14.79
2019-05-11T05:55:09.148Z,14.88
2019-05-11T05:57:35.887Z,14.99
2019-05-11T06:00:02.580Z,15.08
2019-05-11T06:02:29.302Z,15.06
2019-05-11T06:04:55.998Z,15.10
2019-05-11T06:07:23.325Z,15.15
2019-05-11T06:09:50.146Z,15.11
2019-05-11T06:12:19.910Z,15.06
2019-05-11T06:14:46.621Z,14.93
2019-05-11T06:17:13.738Z,14.81
2019-05-11T06:19:40.576Z,14.80
2019-05-11T06:22:07.344Z,14.78
2019-05-11T06:24:34.438Z,14.71
2019-05-11T06:27:01.139Z,14.74
2019-05-11T06:29:27.939Z,14.81
2019-05-11T06:31:55.270Z,14.88
2019-05-11T06:34:22.105Z,14.90
2019-05-11T06:36:49.123Z,14.90
2019-05-11T06:39:15.868Z,15.03
2019-05-11T06:41:42.660Z,15.13
2019-05-11T06:44:09.427Z,15.12
2019-05-11T06:46:36.170Z,15.16
2019-05-11T06:49:02.919Z,15.12
2019-05-11T06:51:29.671Z,10.91
2019-05-11T06:53:56.457Z,15.16
2019-05-11T06:56:23.188Z,15.19
2019-05-11T06:58:50.864Z,15.28
2019-05-11T07:01:17.579Z,15.31
2019-05-11T07:03:44.302Z,15.22
2019-05-11T07:06:11.347Z,15.30
2019-05-11T07:08:38.332Z,15.30
2019-05-11T07:11:05.158Z,15.32
2019-05-11T07:13:31.959Z,15.35
2019-05-11T07:16:00.979Z,15.28
2019-05-11T07:18:27.961Z,15.29
2019-05-11T07:20:54.716Z,15.39
2019-05-11T07:23:21.530Z,15.39
2019-05-11T07:25:48.712Z,15.43
2019-05-11T07:28:15.442Z,15.37
2019-05-11T07:30:42.288Z,15.40
2019-05-11T07:33:09.010Z,15.45
2019-05-11T07:35:38.365Z,15.51
2019-05-11T07:38:04.511Z,15.51
2019-05-11T07:40:31.253Z,15.38
2019-05-11T07:42:58.977Z,15.27
2019-05-11T07:45:28.249Z,15.08
2019-05-11T07:47:58.791Z,14.95
2019-05-11T07:50:25.357Z,14.85
2019-05-11T07:52:52.234Z,14.74
2019-05-11T07:55:19.489Z,14.61
2019-05-11T07:57:48.130Z,14.56
2019-05-11T08:00:15.136Z,14.56
2019-05-11T08:02:41.877Z,14.63
2019-05-11T08:05:10.609Z,14.67
2019-05-11T08:07:38.007Z,14.91
2019-05-11T08:10:05.126Z,14.99
2019-05-11T08:12:39.226Z,15.01
2019-05-11T08:15:11.878Z,15.07
2019-05-11T08:17:34.831Z,15.14
2019-05-11T08:20:44.045Z,15.26
2019-05-11T08:24:25.086Z,15.26
2019-05-11T08:26:45.171Z,15.40
2019-05-11T08:29:27.978Z,15.45
2019-05-11T08:31:58.519Z,15.39
2019-05-11T08:34:30.711Z,15.45
2019-05-11T08:37:42.595Z,15.39
2019-05-11T08:40:18.752Z,15.33
2019-05-11T08:42:58.405Z,15.19
2019-05-11T08:45:45.086Z,14.78
2019-05-11T08:48:12.426Z,14.60
2019-05-11T08:50:39.354Z,14.50
2019-05-11T08:53:08.434Z,14.44
2019-05-11T08:55:34.934Z,14.30
2019-05-11T08:58:01.966Z,14.26
2019-05-11T09:00:28.871Z,14.24
2019-05-11T09:02:58.025Z,14.14
2019-05-11T09:05:29.186Z,14.02
2019-05-11T09:07:57.758Z,14.03
2019-05-11T09:10:24.716Z,13.98
2019-05-11T09:12:51.463Z,14.07
2019-05-11T09:15:32.541Z,14.15
2019-05-11T09:17:48.797Z,14.16
2019-05-11T09:20:17.987Z,14.41
2019-05-11T09:22:44.623Z,14.52
2019-05-11T09:25:11.793Z,14.51
2019-05-11T09:27:38.852Z,14.46
2019-05-11T09:30:08.107Z,14.50
2019-05-11T09:32:58.135Z,14.43
2019-05-11T09:35:25.322Z,14.55
2019-05-11T09:37:53.343Z,14.48
2019-05-11T09:40:22.204Z,14.42
2019-05-11T09:42:50.123Z,14.35
2019-05-11T09:45:19.063Z,14.37
2019-05-11T09:47:47.742Z,14.36
2019-05-11T09:50:14.757Z,14.43
2019-05-11T09:52:41.556Z,14.65
2019-05-11T09:55:08.917Z,14.77
2019-05-11T09:57:38.198Z,14.96
2019-05-11T10:00:04.989Z,15.15
2019-05-11T10:02:34.550Z,15.30
2019-05-11T10:05:01.332Z,15.43
2019-05-11T10:07:28.907Z,15.42
2019-05-11T10:09:58.477Z,15.59
2019-05-11T10:12:25.421Z,15.69
2019-05-11T10:14:54.910Z,15.81
2019-05-11T10:17:21.654Z,15.89
2019-05-11T10:19:49.667Z,15.84
2019-05-11T10:22:18.694Z,15.82
2019-05-11T10:24:47.692Z,15.80
2019-05-11T10:27:14.588Z,15.91
2019-05-11T10:29:41.312Z,15.97
2019-05-11T10:32:09.934Z,16.11
2019-05-11T10:34:38.729Z,16.25
2019-05-11T10:37:05.342Z,16.38
2019-05-11T10:39:32.189Z,16.27
2019-05-11T10:41:58.943Z,16.27
2019-05-11T10:44:27.922Z,16.27
2019-05-11T10:46:54.269Z,16.26
2019-05-11T10:49:20.994Z,16.22
2019-05-11T10:51:48.634Z,16.17
2019-05-11T10:54:18.748Z,16.16
2019-05-11T10:56:48.024Z,16.16
2019-05-11T10:59:15.639Z,16.12
2019-05-11T11:01:42.422Z,16.18
2019-05-11T11:04:09.137Z,16.11
2019-05-11T11:06:35.842Z,16.20
2019-05-11T11:09:05.214Z,16.16
2019-05-11T11:11:32.265Z,16.14
2019-05-11T11:13:59.485Z,16.02
2019-05-11T11:16:37.029Z,15.83
2019-05-11T11:18:55.030Z,15.11
2019-05-11T11:21:22.980Z,14.72
2019-05-11T11:23:49.977Z,14.58
2019-05-11T11:26:18.502Z,14.48
2019-05-11T11:28:47.532Z,14.20
2019-05-11T11:31:13.900Z,14.02
2019-05-11T11:33:40.606Z,14.26
2019-05-11T11:36:08.587Z,14.42
2019-05-11T11:38:38.322Z,14.43
2019-05-11T11:41:05.023Z,14.09
2019-05-11T11:43:35.138Z,14.19
2019-05-11T11:46:04.426Z,14.31
2019-05-11T11:48:31.137Z,14.16
2019-05-11T11:50:58.525Z,13.97
2019-05-11T11:53:27.903Z,13.89
2019-05-11T11:55:55.018Z,13.97
2019-05-11T11:58:23.874Z,13.78
2019-05-11T12:00:50.433Z,13.77
2019-05-11T12:03:19.752Z,13.91
2019-05-11T12:05:47.730Z,13.89
2019-05-11T12:08:18.859Z,13.89
2019-05-11T12:10:52.984Z,13.98
2019-05-11T12:13:20.444Z,14.23
2019-05-11T12:15:48.243Z,14.42
2019-05-11T12:18:15.217Z,14.46
2019-05-11T12:20:44.792Z,14.17
2019-05-11T12:23:12.064Z,14.06
2019-05-11T12:25:40.598Z,13.91
2019-05-11T12:28:08.086Z,13.95
2019-05-11T12:30:35.085Z,13.74
2019-05-11T12:33:01.925Z,13.84
2019-05-11T12:35:28.668Z,13.76
2019-05-11T12:37:58.879Z,13.60
2019-05-11T12:40:28.086Z,13.43
2019-05-11T12:43:48.645Z,13.47
2019-05-11T12:46:15.088Z,13.50
2019-05-11T12:48:41.804Z,13.49
2019-05-11T12:51:08.850Z,13.31
2019-05-11T12:53:38.612Z,13.39
2019-05-11T12:56:07.980Z,13.60
2019-05-11T12:58:35.676Z,13.62
2019-05-11T13:01:02.323Z,13.56
2019-05-11T13:03:29.065Z,13.58
2019-05-11T13:05:55.775Z,13.58
2019-05-11T13:08:22.640Z,13.40
2019-05-11T13:10:49.863Z,13.18
2019-05-11T13:13:18.185Z,13.25
2019-05-11T13:15:45.161Z,13.26
2019-05-11T13:18:11.857Z,13.16
2019-05-11T13:20:40.567Z,13.01
2019-05-11T13:23:08.008Z,12.99
2019-05-11T13:25:34.899Z,12.99
2019-05-11T13:28:01.613Z,13.02
2019-05-11T13:30:29.309Z,13.16
2019-05-11T13:32:57.968Z,13.23
2019-05-11T13:35:24.719Z,13.12
2019-05-11T13:37:51.471Z,13.11
2019-05-11T13:40:18.725Z,13.32
2019-05-11T13:42:45.749Z,13.27
2019-05-11T13:45:12.463Z,13.30
2019-05-11T13:47:51.261Z,13.40
2019-05-11T13:50:07.906Z,13.46
2019-05-11T13:52:35.926Z,13.36
2019-05-11T13:55:02.753Z,13.53
2019-05-11T13:57:31.993Z,13.34
2019-05-11T13:59:58.706Z,13.30
2019-05-11T14:02:25.533Z,13.11
2019-05-11T14:04:52.272Z,13.03
2019-05-11T14:07:21.769Z,13.07
2019-05-11T14:09:48.629Z,12.86
2019-05-11T14:12:15.302Z,12.60
2019-05-11T14:14:42.021Z,12.49
2019-05-11T14:17:08.739Z,12.40
2019-05-11T14:19:38.277Z,12.35
2019-05-11T14:22:04.142Z,12.45
2019-05-11T14:24:30.958Z,12.42
2019-05-11T14:26:58.189Z,12.30
2019-05-11T14:29:28.410Z,12.39
2019-05-11T14:31:55.187Z,12.55
2019-05-11T14:34:22.107Z,12.30
2019-05-11T14:36:48.903Z,12.23
2019-05-11T14:39:15.605Z,12.11
2019-05-11T14:41:42.282Z,12.19
2019-05-11T14:44:09.232Z,12.02
2019-05-11T14:46:38.247Z,12.11
2019-05-11T14:49:04.646Z,12.30
2019-05-11T14:51:31.406Z,12.28
2019-05-11T14:53:59.495Z,12.41
2019-05-11T14:56:27.904Z,12.21
2019-05-11T14:58:55.220Z,12.28
2019-05-11T15:01:21.966Z,12.28
2019-05-11T15:03:49.015Z,12.27
2019-05-11T15:06:15.810Z,12.42
2019-05-11T15:08:42.939Z,12.51
2019-05-11T15:11:09.620Z,12.48
2019-05-11T15:13:38.258Z,12.50
2019-05-11T15:16:05.024Z,12.37
2019-05-11T15:18:38.454Z,12.30
2019-05-11T15:21:00.335Z,12.15
2019-05-11T15:23:28.428Z,12.30
2019-05-11T15:25:55.434Z,12.45
2019-05-11T15:28:22.119Z,12.43
2019-05-11T15:30:48.920Z,12.41
2019-05-11T15:33:18.112Z,12.43
2019-05-11T15:35:44.528Z,12.46
2019-05-11T15:38:11.261Z,12.54
2019-05-11T15:40:38.433Z,12.45
2019-05-11T15:43:05.393Z,12.34
2019-05-11T15:45:32.096Z,12.47
2019-05-11T15:48:02.029Z,12.44
2019-05-11T15:50:29.253Z,12.43
2019-05-11T15:52:58.128Z,12.33
2019-05-11T15:55:27.634Z,12.32
2019-05-11T15:57:54.325Z,12.30
2019-05-11T16:00:21.048Z,12.39
2019-05-11T16:02:48.919Z,12.41
2019-05-11T16:05:18.238Z,12.35
2019-05-11T16:07:45.271Z,12.24
2019-05-11T16:10:12.342Z,12.25
2019-05-11T16:12:39.408Z,12.23
2019-05-11T16:15:08.578Z,12.22
2019-05-11T16:17:35.199Z,12.37
2019-05-11T16:20:02.169Z,12.47
2019-05-11T16:22:29.214Z,12.51
2019-05-11T16:24:57.945Z,12.54
2019-05-11T16:27:24.525Z,12.60
2019-05-11T16:29:51.228Z,12.63
2019-05-11T16:32:18.168Z,12.64
2019-05-11T16:34:44.877Z,12.59
2019-05-11T16:37:14.198Z,12.67
2019-05-11T16:39:40.961Z,12.80
2019-05-11T16:42:08.510Z,12.80
2019-05-11T16:44:35.293Z,12.85
2019-05-11T16:47:02.030Z,12.97
2019-05-11T16:49:32.263Z,13.09
2019-05-11T16:51:59.201Z,13.08
2019-05-11T16:54:28.060Z,12.81
2019-05-11T16:56:54.867Z,12.77
2019-05-11T16:59:21.571Z,12.96
2019-05-11T17:01:48.374Z,12.88
2019-05-11T17:04:15.195Z,12.97
2019-05-11T17:06:41.917Z,12.92
2019-05-11T17:09:09.086Z,12.94
2019-05-11T17:11:38.330Z,12.93
2019-05-11T17:14:04.581Z,12.89
2019-05-11T17:16:31.559Z,12.90
2019-05-11T17:18:58.512Z,12.87
2019-05-11T17:21:25.557Z,12.89
2019-05-11T17:23:52.261Z,12.79
2019-05-11T17:26:19.412Z,12.75
2019-05-11T17:28:46.094Z,12.71
2019-05-11T17:31:12.803Z,12.69
2019-05-11T17:33:39.482Z,12.72
2019-05-11T17:36:08.512Z,12.85
2019-05-11T17:38:34.980Z,12.92
2019-05-11T17:41:01.691Z,13.02
2019-05-11T17:43:28.745Z,13.05
2019-05-11T17:45:55.559Z,12.99
2019-05-11T17:48:22.251Z,13.09
2019-05-11T17:50:50.207Z,13.11
2019-05-11T17:53:18.342Z,13.16
2019-05-11T17:55:45.123Z,13.21
2019-05-11T17:58:11.829Z,13.25
2019-05-11T18:00:39.233Z,13.16
2019-05-11T18:03:08.340Z,13.14
2019-05-11T18:05:37.794Z,13.10
2019-05-11T18:08:04.086Z,13.09
2019-05-11T18:10:30.814Z,13.07
2019-05-11T18:12:57.858Z,13.12
2019-05-11T18:15:24.748Z,13.25
2019-05-11T18:17:51.433Z,13.40
2019-05-11T18:20:21.531Z,13.35
2019-05-11T18:22:48.901Z,13.32
2019-05-11T18:25:18.365Z,13.30
2019-05-11T18:27:48.485Z,13.28
2019-05-11T18:30:15.604Z,13.25
2019-05-11T18:32:42.447Z,13.31
2019-05-11T18:35:09.160Z,13.34
2019-05-11T18:37:35.858Z,13.36
2019-05-11T18:40:02.744Z,13.38
2019-05-11T18:42:29.466Z,13.53
2019-05-11T18:44:58.081Z,13.62
2019-05-11T18:47:24.826Z,13.46
2019-05-11T18:49:51.899Z,13.50
2019-05-11T18:52:18.868Z,13.56
2019-05-11T18:54:47.877Z,13.55
2019-05-11T18:57:14.336Z,13.57
2019-05-11T18:59:41.046Z,13.21
2019-05-11T19:02:08.405Z,13.05
2019-05-11T19:04:35.515Z,13.08
2019-05-11T19:07:14.264Z,13.07
2019-05-11T19:09:30.862Z,12.98
2019-05-11T19:11:57.852Z,12.95
2019-05-11T19:14:24.679Z,12.95
2019-05-11T19:16:52.045Z,12.99
2019-05-11T19:19:18.759Z,12.88
2019-05-11T19:21:48.186Z,12.77
2019-05-11T19:24:18.956Z,12.73
2019-05-11T19:26:48.102Z,12.70
2019-05-11T19:29:14.314Z,12.61
2019-05-11T19:31:41.031Z,12.56
2019-05-11T19:34:07.734Z,12.47
2019-05-11T19:36:34.930Z,12.41
2019-05-11T19:39:02.202Z,12.44
2019-05-11T19:41:29.003Z,12.39
2019-05-11T19:43:57.720Z,12.34
2019-05-11T19:46:25.320Z,12.30
2019-05-11T19:48:53.496Z,12.28
2019-05-11T19:51:20.255Z,12.26
2019-05-11T19:53:48.412Z,12.21
2019-05-11T19:56:15.354Z,12.19
2019-05-11T19:58:42.061Z,12.22
2019-05-11T20:01:09.164Z,12.22
2019-05-11T20:03:37.869Z,12.25
2019-05-11T20:06:04.464Z,12.21
2019-05-11T20:08:31.180Z,12.17
2019-05-11T20:10:58.188Z,12.13
2019-05-11T20:13:25.176Z,12.07
2019-05-11T20:15:51.862Z,12.13
2019-05-11T20:18:18.597Z,12.22
2019-05-11T20:20:47.912Z,12.21
2019-05-11T20:23:17.939Z,12.14
2019-05-11T20:25:44.653Z,12.18
2019-05-11T20:28:11.331Z,12.24
2019-05-11T20:30:38.048Z,12.37
2019-05-11T20:33:04.795Z,12.38
2019-05-11T20:35:32.580Z,12.38
2019-05-11T20:38:01.424Z,12.32
2019-05-11T20:40:28.567Z,12.31
2019-05-11T20:42:55.439Z,12.34
2019-05-11T20:45:22.629Z,12.37
2019-05-11T20:47:49.327Z,12.36
2019-05-11T20:50:18.151Z,12.27
2019-05-11T20:52:44.784Z,12.27
2019-05-11T20:55:11.512Z,12.27
2019-05-11T20:57:39.690Z,12.40
2019-05-11T21:00:08.102Z,12.36
2019-05-11T21:02:35.098Z,12.31
2019-05-11T21:05:03.764Z,12.18
2019-05-11T21:07:30.518Z,12.13
2019-05-11T21:09:57.851Z,12.05
2019-05-11T21:12:24.694Z,12.06
2019-05-11T21:14:51.391Z,11.98
2019-05-11T21:17:18.330Z,11.87
2019-05-11T21:19:45.036Z,11.86
2019-05-11T21:22:12.029Z,11.90
2019-05-11T21:24:38.827Z,11.77
2019-05-11T21:27:05.541Z,11.56
2019-05-11T21:29:32.524Z,11.36
2019-05-11T21:31:59.396Z,11.46
2019-05-11T21:34:27.997Z,11.58
2019-05-11T21:36:54.710Z,11.69
2019-05-11T21:39:21.411Z,11.77
2019-05-11T21:41:48.147Z,11.70
2019-05-11T21:44:14.847Z,11.75
2019-05-11T21:46:41.545Z,11.81
2019-05-11T21:49:09.209Z,11.70
2019-05-11T21:51:38.099Z,11.51
2019-05-11T21:54:04.937Z,11.41
2019-05-11T21:56:31.621Z,11.47
2019-05-11T21:58:58.718Z,11.52
2019-05-11T22:01:27.877Z,11.42
2019-05-11T22:03:55.474Z,11.42
2019-05-11T22:06:22.192Z,11.39
2019-05-11T22:08:50.877Z,11.38
2019-05-11T22:11:17.941Z,11.34
2019-05-11T22:13:48.482Z,11.29
2019-05-11T22:16:15.514Z,11.16
2019-05-11T22:18:42.330Z,10.97
2019-05-11T22:21:09.046Z,10.99
2019-05-11T22:23:38.562Z,11.01
2019-05-11T22:26:07.620Z,10.87
2019-05-11T22:28:35.164Z,10.71
2019-05-11T22:31:01.865Z,10.63
2019-05-11T22:33:28.584Z,10.62
2019-05-11T22:35:55.263Z,10.52
2019-05-11T22:38:21.964Z,10.53
2019-05-11T22:40:48.811Z,10.49
2019-05-11T22:43:18.447Z,10.39
2019-05-11T22:45:45.154Z,10.34
2019-05-11T22:48:11.839Z,10.36
2019-05-11T22:50:38.733Z,10.42
2019-05-11T22:53:05.539Z,10.43
2019-05-11T22:55:32.759Z,10.51
2019-05-11T22:57:59.514Z,10.59
2019-05-11T23:00:40.456Z,10.61
2019-05-11T23:03:07.657Z,10.69
2019-05-11T23:05:35.796Z,10.39
2019-05-11T23:08:02.551Z,10.31
2019-05-11T23:10:29.242Z,10.32
2019-05-11T23:12:58.653Z,10.31
2019-05-11T23:15:25.346Z,10.33
2019-05-11T23:17:52.088Z,10.23
2019-05-11T23:20:18.789Z,10.15
2019-05-11T23:22:56.461Z,10.12
2019-05-11T23:25:15.241Z,10.08
2019-05-11T23:27:41.991Z,10.09
2019-05-11T23:30:09.045Z,10.05
2019-05-11T23:32:35.686Z,10.05
2019-05-11T23:35:02.713Z,10.11
2019-05-11T23:37:29.449Z,10.09
2019-05-11T23:39:58.411Z,10.10
2019-05-11T23:42:28.884Z,10.10
2019-05-11T23:44:58.566Z,10.03
2019-05-11T23:47:28.869Z,10.03
2019-05-11T23:49:55.669Z,9.97
2019-05-11T23:52:22.664Z,9.86
2019-05-11T23:54:49.833Z,9.81
2019-05-11T23:57:18.632Z,9.74
2019-05-11T23:59:47.770Z,9.59
